createdAt,value
2019-04-11T00:02:28.996Z,2.13
2019-04-11T00:04:56.979Z,2.30
2019-04-11T00:07:25.036Z,4.50
2019-04-11T00:09:53.012Z,2.37
2019-04-11T00:12:22.095Z,3.23
2019-04-11T00:14:50.310Z,2.10
2019-04-11T00:17:18.271Z,3.50
2019-04-11T00:19:47.410Z,2.57
2019-04-11T00:22:15.611Z,1.90
2019-04-11T00:24:43.640Z,2.60
2019-04-11T00:27:12.868Z,2.43
2019-04-11T00:29:40.967Z,2.33
2019-04-11T00:32:09.699Z,2.33
2019-04-11T00:34:39.333Z,2.67
2019-04-11T00:37:08.626Z,2.00
2019-04-11T00:39:37.543Z,2.53
2019-04-11T00:42:06.187Z,2.07
2019-04-11T00:44:34.734Z,2.50
2019-04-11T00:47:02.902Z,2.30
2019-04-11T00:49:30.909Z,2.30
2019-04-11T00:52:00.362Z,1.90
2019-04-11T00:54:29.009Z,1.97
2019-04-11T00:56:57.503Z,2.27
2019-04-11T00:59:26.705Z,2.13
2019-04-11T01:01:55.136Z,2.10
2019-04-11T01:04:23.470Z,3.07
2019-04-11T01:06:52.236Z,2.00
2019-04-11T01:09:20.463Z,1.90
2019-04-11T01:11:48.356Z,2.30
2019-04-11T01:14:17.350Z,2.10
2019-04-11T01:16:50.678Z,2.00
2019-04-11T01:19:18.987Z,2.77
2019-04-11T01:21:46.975Z,2.10
2019-04-11T01:24:15.643Z,2.47
2019-04-11T01:26:43.782Z,2.40
2019-04-11T01:29:11.842Z,1.93
2019-04-11T01:31:40.365Z,2.23
2019-04-11T01:34:08.602Z,1.93
2019-04-11T01:36:37.416Z,4.03
2019-04-11T01:39:21.015Z,2.07
2019-04-11T01:41:48.994Z,1.93
2019-04-11T01:44:17.015Z,2.17
2019-04-11T01:46:45.085Z,3.40
2019-04-11T01:49:17.528Z,1.87
2019-04-11T01:51:45.612Z,1.80
2019-04-11T01:54:13.576Z,2.47
2019-04-11T01:56:41.603Z,2.10
2019-04-11T01:59:09.636Z,1.67
2019-04-11T02:01:47.261Z,3.20
2019-04-11T02:04:24.683Z,4.07
2019-04-11T02:06:52.711Z,2.40
2019-04-11T02:09:20.621Z,4.40
2019-04-11T02:11:49.858Z,2.80
2019-04-11T02:14:20.705Z,2.17
2019-04-11T02:16:48.023Z,2.30
2019-04-11T02:19:16.261Z,2.27
2019-04-11T02:21:44.368Z,2.10
2019-04-11T02:24:37.425Z,3.57
2019-04-11T02:27:26.044Z,2.63
2019-04-11T02:29:55.407Z,2.40
2019-04-11T02:32:25.483Z,7.20
2019-04-11T02:34:57.165Z,2.30
2019-04-11T02:37:24.584Z,2.00
2019-04-11T02:39:55.715Z,2.40
2019-04-11T02:42:23.497Z,2.00
2019-04-11T02:45:03.293Z,2.20
2019-04-11T02:47:25.308Z,2.17
2019-04-11T02:49:51.825Z,2.10
2019-04-11T02:52:19.952Z,2.43
2019-04-11T02:54:49.368Z,3.57
2019-04-11T02:57:18.343Z,2.40
2019-04-11T02:59:48.831Z,2.60
2019-04-11T03:02:19.230Z,2.27
2019-04-11T03:04:47.938Z,1.80
2019-04-11T03:07:16.549Z,7.37
2019-04-11T03:09:48.164Z,2.70
2019-04-11T03:12:15.496Z,2.67
2019-04-11T03:15:01.113Z,2.10
2019-04-11T03:17:20.579Z,2.37
2019-04-11T03:20:00.873Z,4.03
2019-04-11T03:22:14.082Z,3.00
2019-04-11T03:24:42.983Z,2.73
2019-04-11T03:27:12.148Z,2.00
2019-04-11T03:29:40.843Z,2.10
2019-04-11T03:32:52.090Z,2.57
2019-04-11T03:37:38.015Z,3.23
2019-04-11T03:39:59.537Z,2.10
2019-04-11T03:42:28.538Z,4.60
2019-04-11T03:44:47.156Z,2.43
2019-04-11T03:47:29.316Z,2.20
2019-04-11T03:49:49.154Z,1.87
2019-04-11T03:52:12.252Z,3.57
2019-04-11T03:54:42.448Z,1.80
2019-04-11T03:57:10.157Z,3.80
2019-04-11T03:59:39.112Z,4.03
2019-04-11T04:02:10.075Z,3.50
2019-04-11T04:04:39.313Z,4.77
2019-04-11T04:07:08.907Z,5.07
2019-04-11T04:09:39.717Z,2.27
2019-04-11T04:12:09.436Z,3.97
2019-04-11T04:15:01.272Z,2.20
2019-04-11T04:17:43.365Z,2.47
2019-04-11T04:20:29.739Z,2.00
2019-04-11T04:23:10.276Z,2.20
2019-04-11T04:25:42.598Z,2.67
2019-04-11T04:28:10.188Z,2.83
2019-04-11T04:30:41.030Z,2.30
2019-04-11T04:33:10.214Z,2.70
2019-04-11T04:35:40.152Z,2.27
2019-04-11T04:38:09.377Z,2.00
2019-04-11T04:40:51.101Z,2.47
2019-04-11T04:43:09.746Z,3.17
2019-04-11T04:45:58.291Z,2.10
2019-04-11T04:48:11.469Z,3.43
2019-04-11T04:50:38.747Z,2.90
2019-04-11T04:53:07.379Z,2.50
2019-04-11T04:55:36.757Z,3.63
2019-04-11T04:58:05.021Z,4.90
2019-04-11T05:00:34.723Z,3.57
2019-04-11T05:03:02.717Z,3.57
2019-04-11T05:05:31.023Z,2.20
2019-04-11T05:08:00.660Z,5.47
2019-04-11T05:10:30.439Z,2.43
2019-04-11T05:12:59.202Z,2.87
2019-04-11T05:15:28.195Z,2.10
2019-04-11T05:17:57.570Z,3.10
2019-04-11T05:20:25.999Z,3.13
2019-04-11T05:22:54.180Z,2.20
2019-04-11T05:25:22.363Z,2.23
2019-04-11T05:27:50.651Z,4.17
2019-04-11T05:30:18.954Z,6.47
2019-04-11T05:32:47.183Z,2.77
2019-04-11T05:35:16.491Z,5.13
2019-04-11T05:37:45.106Z,4.70
2019-04-11T05:40:14.644Z,3.57
2019-04-11T05:42:42.845Z,4.70
2019-04-11T05:45:15.915Z,3.83
2019-04-11T05:47:40.886Z,2.20
2019-04-11T05:50:28.339Z,3.17
2019-04-11T05:53:00.051Z,1.97
2019-04-11T05:55:28.471Z,3.30
2019-04-11T05:57:58.609Z,3.33
2019-04-11T06:00:44.493Z,2.47
2019-04-11T06:03:13.392Z,2.27
2019-04-11T06:05:55.121Z,2.17
2019-04-11T06:08:27.122Z,4.20
2019-04-11T06:11:16.398Z,2.23
2019-04-11T06:13:46.845Z,2.43
2019-04-11T06:16:14.940Z,3.30
2019-04-11T06:19:00.530Z,1.80
2019-04-11T06:21:35.950Z,2.37
2019-04-11T06:24:21.653Z,6.67
2019-04-11T06:27:06.930Z,2.00
2019-04-11T06:30:12.437Z,2.10
2019-04-11T06:33:05.195Z,4.87
2019-04-11T06:35:54.999Z,2.23
2019-04-11T06:38:51.203Z,2.10
2019-04-11T06:41:26.949Z,3.53
2019-04-11T06:44:04.701Z,4.80
2019-04-11T06:47:02.100Z,3.83
2019-04-11T06:49:38.409Z,1.70
2019-04-11T06:52:08.555Z,3.40
2019-04-11T06:55:10.874Z,2.67
2019-04-11T06:57:40.190Z,4.63
2019-04-11T07:00:09.175Z,2.40
2019-04-11T07:02:41.057Z,3.00
2019-04-11T07:05:10.654Z,2.23
2019-04-11T07:07:40.939Z,3.13
2019-04-11T07:10:09.649Z,4.13
2019-04-11T07:13:03.470Z,2.67
2019-04-11T07:15:35.578Z,2.23
2019-04-11T07:18:22.538Z,2.67
2019-04-11T07:21:04.695Z,2.30
2019-04-11T07:23:51.208Z,1.90
2019-04-11T07:26:35.363Z,3.57
2019-04-11T07:29:23.715Z,1.97
2019-04-11T07:32:13.439Z,2.20
2019-04-11T07:35:04.819Z,1.80
2019-04-11T07:37:38.507Z,2.13
2019-04-11T07:40:26.877Z,2.30
2019-04-11T07:43:19.037Z,2.67
2019-04-11T07:46:12.700Z,6.03
2019-04-11T07:48:42.626Z,2.00
2019-04-11T07:51:42.910Z,2.90
2019-04-11T07:54:20.126Z,2.53
2019-04-11T07:57:08.371Z,1.93
2019-04-11T08:00:08.165Z,4.23
2019-04-11T08:03:01.955Z,2.30
2019-04-11T08:05:58.737Z,4.13
2019-04-11T08:08:51.682Z,1.90
2019-04-11T08:11:37.949Z,2.13
2019-04-11T08:14:32.757Z,3.47
2019-04-11T08:17:37.587Z,2.53
2019-04-11T08:20:19.391Z,1.80
2019-04-11T08:22:57.144Z,1.80
2019-04-11T08:25:42.742Z,2.43
2019-04-11T08:28:13.672Z,3.67
2019-04-11T08:31:19.368Z,2.67
2019-04-11T08:33:48.850Z,2.57
2019-04-11T08:36:42.081Z,2.93
2019-04-11T08:39:15.822Z,2.47
2019-04-11T08:41:54.225Z,2.07
2019-04-11T08:44:26.453Z,5.07
2019-04-11T08:46:58.748Z,4.70
2019-04-11T08:49:39.780Z,2.00
2019-04-11T08:52:13.913Z,1.90
2019-04-11T08:54:59.809Z,2.87
2019-04-11T08:57:36.225Z,2.47
2019-04-11T09:00:36.489Z,1.80
2019-04-11T09:03:23.865Z,2.07
2019-04-11T09:06:12.743Z,1.90
2019-04-11T09:08:59.767Z,2.47
2019-04-11T09:11:31.191Z,2.07
2019-04-11T09:14:18.227Z,2.43
2019-04-11T09:17:08.302Z,2.17
2019-04-11T09:19:55.463Z,2.83
2019-04-11T09:22:35.643Z,1.97
2019-04-11T09:25:28.999Z,1.90
2019-04-11T09:28:19.568Z,1.90
2019-04-11T09:31:21.611Z,1.80
2019-04-11T09:34:07.215Z,3.67
2019-04-11T09:37:09.487Z,1.70
2019-04-11T09:40:03.914Z,1.83
2019-04-11T09:42:49.789Z,1.97
2019-04-11T09:45:35.438Z,2.23
2019-04-11T09:48:22.294Z,1.83
2019-04-11T09:51:09.469Z,2.10
2019-04-11T09:53:38.792Z,2.10
2019-04-11T09:56:31.736Z,3.70
2019-04-11T09:59:03.032Z,2.73
2019-04-11T10:01:53.796Z,2.20
2019-04-11T10:04:23.322Z,3.00
2019-04-11T10:07:13.209Z,2.50
2019-04-11T10:09:56.806Z,2.20
2019-04-11T10:12:49.796Z,1.80
2019-04-11T10:15:18.904Z,2.13
2019-04-11T10:18:05.175Z,2.00
2019-04-11T10:20:34.902Z,1.73
2019-04-11T10:23:20.896Z,1.60
2019-04-11T10:25:55.971Z,1.50
2019-04-11T10:29:02.260Z,1.73
2019-04-11T10:31:32.561Z,3.17
2019-04-11T10:34:35.449Z,2.07
2019-04-11T10:37:09.734Z,4.80
2019-04-11T10:40:00.214Z,2.77
2019-04-11T10:42:30.683Z,2.10
2019-04-11T10:45:30.977Z,1.60
2019-04-11T10:48:05.486Z,2.53
2019-04-11T10:50:51.103Z,1.60
2019-04-11T10:53:20.067Z,1.70
2019-04-11T10:56:10.668Z,2.83
2019-04-11T10:59:04.985Z,2.10
2019-04-11T11:01:50.681Z,1.47
2019-04-11T11:04:40.901Z,1.70
2019-04-11T11:07:21.023Z,1.53
2019-04-11T11:09:59.189Z,1.50
2019-04-11T11:12:33.040Z,1.40
2019-04-11T11:15:23.274Z,1.47
2019-04-11T11:18:39.948Z,2.53
2019-04-11T11:20:53.981Z,3.53
2019-04-11T11:23:35.483Z,2.57
2019-04-11T11:26:24.208Z,2.50
2019-04-11T11:29:14.629Z,1.50
2019-04-11T11:31:58.714Z,1.70
2019-04-11T11:34:32.935Z,1.40
2019-04-11T11:37:18.323Z,1.60
2019-04-11T11:40:08.846Z,2.60
2019-04-11T11:42:50.988Z,1.60
2019-04-11T11:45:29.809Z,1.47
2019-04-11T11:48:09.923Z,1.50
2019-04-11T11:50:36.433Z,1.60
2019-04-11T11:53:28.294Z,1.53
2019-04-11T11:55:57.839Z,2.43
2019-04-11T11:58:48.788Z,2.73
2019-04-11T12:01:15.697Z,1.63
2019-04-11T12:04:03.384Z,1.30
2019-04-11T12:06:31.896Z,1.33
2019-04-11T12:09:18.245Z,1.30
2019-04-11T12:11:52.439Z,1.23
2019-04-11T12:14:53.797Z,1.40
2019-04-11T12:17:31.769Z,1.27
2019-04-11T12:20:09.015Z,1.90
2019-04-11T12:22:32.741Z,1.40
2019-04-11T12:25:09.660Z,3.90
2019-04-11T12:28:01.036Z,1.93
2019-04-11T12:30:41.967Z,1.80
2019-04-11T12:33:31.672Z,1.70
2019-04-11T12:36:30.641Z,2.10
2019-04-11T12:39:17.744Z,1.70
2019-04-11T12:41:56.237Z,1.90
2019-04-11T12:44:52.037Z,1.60
2019-04-11T12:47:28.021Z,1.70
2019-04-11T12:50:30.393Z,1.40
2019-04-11T12:53:09.281Z,1.40
2019-04-11T12:55:51.962Z,1.50
2019-04-11T12:58:39.463Z,1.87
2019-04-11T13:01:27.612Z,1.90
2019-04-11T13:04:12.932Z,1.50
2019-04-11T13:06:58.565Z,2.20
2019-04-11T13:09:48.178Z,1.63
2019-04-11T13:12:24.468Z,1.73
2019-04-11T13:15:07.586Z,1.40
2019-04-11T13:17:38.049Z,1.50
2019-04-11T13:20:27.620Z,1.70
2019-04-11T13:22:58.321Z,1.60
2019-04-11T13:25:51.008Z,1.33
2019-04-11T13:28:19.021Z,1.80
2019-04-11T13:31:14.866Z,1.63
2019-04-11T13:33:42.931Z,1.83
2019-04-11T13:36:39.020Z,1.83
2019-04-11T13:39:07.036Z,1.70
2019-04-11T13:41:44.116Z,1.70
2019-04-11T13:44:24.206Z,1.60
2019-04-11T13:47:16.923Z,1.50
2019-04-11T13:49:56.293Z,1.80
2019-04-11T13:52:43.292Z,1.47
2019-04-11T13:55:20.831Z,1.30
2019-04-11T13:58:07.859Z,2.37
2019-04-11T14:01:00.614Z,1.47
2019-04-11T14:03:47.821Z,1.87
2019-04-11T14:06:30.048Z,2.10
2019-04-11T14:09:22.816Z,1.50
2019-04-11T14:11:52.260Z,1.63
2019-04-11T14:14:32.912Z,2.17
2019-04-11T14:17:22.265Z,1.60
2019-04-11T14:20:11.663Z,1.50
2019-04-11T14:23:08.943Z,1.20
2019-04-11T14:25:54.295Z,1.40
2019-04-11T14:28:22.603Z,2.50
2019-04-11T14:31:01.335Z,2.73
2019-04-11T14:33:30.860Z,1.60
2019-04-11T14:36:16.513Z,1.80
2019-04-11T14:38:49.095Z,1.30
2019-04-11T14:41:45.884Z,2.07
2019-04-11T14:44:15.991Z,1.30
2019-04-11T14:47:14.985Z,1.40
2019-04-11T14:49:44.324Z,1.70
2019-04-11T14:52:30.786Z,2.93
2019-04-11T14:55:01.215Z,2.23
2019-04-11T14:57:54.501Z,1.70
2019-04-11T15:00:37.035Z,1.40
2019-04-11T15:03:24.115Z,1.70
2019-04-11T15:06:31.353Z,1.67
2019-04-11T15:09:30.229Z,1.70
2019-04-11T15:12:02.165Z,1.57
2019-04-11T15:15:01.176Z,1.90
2019-04-11T15:17:37.105Z,1.27
2019-04-11T15:20:33.811Z,1.60
2019-04-11T15:23:21.694Z,2.30
2019-04-11T15:26:08.906Z,1.57
2019-04-11T15:28:58.547Z,4.67
2019-04-11T15:31:45.541Z,3.90
2019-04-11T15:34:35.222Z,3.23
2019-04-11T15:37:20.666Z,1.50
2019-04-11T15:40:01.751Z,1.40
2019-04-11T15:42:47.432Z,1.60
2019-04-11T15:45:30.943Z,1.50
2019-04-11T15:48:23.625Z,1.20
2019-04-11T15:51:08.058Z,1.40
2019-04-11T15:54:01.033Z,1.67
2019-04-11T15:57:03.182Z,1.70
2019-04-11T15:59:55.901Z,2.00
2019-04-11T16:02:35.646Z,1.70
2019-04-11T16:05:47.917Z,1.67
2019-04-11T16:08:20.218Z,1.30
2019-04-11T16:10:54.447Z,1.57
2019-04-11T16:13:36.516Z,1.20
2019-04-11T16:16:09.602Z,1.50
2019-04-11T16:18:51.930Z,2.93
2019-04-11T16:21:24.391Z,2.10
2019-04-11T16:24:22.462Z,1.70
2019-04-11T16:27:02.535Z,1.93
2019-04-11T16:29:40.595Z,1.50
2019-04-11T16:32:12.051Z,1.90
2019-04-11T16:34:48.495Z,2.80
2019-04-11T16:37:17.945Z,1.33
2019-04-11T16:40:03.469Z,1.50
2019-04-11T16:42:45.678Z,1.30
2019-04-11T16:45:38.845Z,2.03
2019-04-11T16:48:06.853Z,1.70
2019-04-11T16:50:34.759Z,2.70
2019-04-11T16:53:02.697Z,1.83
2019-04-11T16:55:30.662Z,1.60
2019-04-11T16:57:58.793Z,1.50
2019-04-11T17:00:27.688Z,2.20
2019-04-11T17:02:55.686Z,1.87
2019-04-11T17:05:26.758Z,1.53
2019-04-11T17:08:16.128Z,1.77
2019-04-11T17:11:01.614Z,1.50
2019-04-11T17:13:32.178Z,2.57
2019-04-11T17:16:00.546Z,1.67
2019-04-11T17:18:28.576Z,2.53
2019-04-11T17:20:56.547Z,5.10
2019-04-11T17:23:24.469Z,2.57
2019-04-11T17:25:53.101Z,3.33
2019-04-11T17:28:23.064Z,1.53
2019-04-11T17:30:54.931Z,1.40
2019-04-11T17:33:21.023Z,2.30
2019-04-11T17:35:49.055Z,3.03
2019-04-11T17:38:17.182Z,1.20
2019-04-11T17:40:45.180Z,2.30
2019-04-11T17:43:13.851Z,1.40
2019-04-11T17:45:42.294Z,1.37
2019-04-11T17:48:10.331Z,1.30
2019-04-11T17:50:38.248Z,2.70
2019-04-11T17:53:06.258Z,1.90
2019-04-11T17:55:34.444Z,1.30
2019-04-11T17:58:02.462Z,1.90
2019-04-11T18:00:33.755Z,1.30
2019-04-11T18:03:01.704Z,1.77
2019-04-11T18:05:29.686Z,3.10
2019-04-11T18:07:57.819Z,1.50
2019-04-11T18:10:26.449Z,1.70
2019-04-11T18:12:55.952Z,1.90
2019-04-11T18:15:24.192Z,2.07
2019-04-11T18:17:52.170Z,2.47
2019-04-11T18:20:20.168Z,3.30
2019-04-11T18:22:50.343Z,5.67
2019-04-11T18:25:20.791Z,4.97
2019-04-11T18:27:51.592Z,3.70
2019-04-11T18:30:17.765Z,1.90
2019-04-11T18:32:45.750Z,2.20
2019-04-11T18:35:13.923Z,3.00
2019-04-11T18:37:42.301Z,5.90
2019-04-11T18:40:11.037Z,1.83
2019-04-11T18:42:39.059Z,3.63
2019-04-11T18:45:07.508Z,2.77
2019-04-11T18:47:35.472Z,3.77
2019-04-11T18:50:03.925Z,2.23
2019-04-11T18:52:32.254Z,2.50
2019-04-11T18:55:00.377Z,3.70
2019-04-11T18:57:28.300Z,5.57
2019-04-11T18:59:56.317Z,3.13
2019-04-11T19:02:24.413Z,3.57
2019-04-11T19:04:52.388Z,4.90
2019-04-11T19:07:27.634Z,4.10
2019-04-11T19:09:50.192Z,6.93
2019-04-11T19:12:18.269Z,17.37
2019-04-11T19:14:46.562Z,17.90
2019-04-11T19:17:15.863Z,12.53
2019-04-11T19:19:46.701Z,10.87
2019-04-11T19:22:14.149Z,8.40
2019-04-11T19:24:42.496Z,8.27
2019-04-11T19:27:10.537Z,10.67
2019-04-11T19:29:39.018Z,13.97
2019-04-11T19:32:07.156Z,9.47
2019-04-11T19:34:35.239Z,6.33
2019-04-11T19:37:03.786Z,5.63
2019-04-11T19:39:32.009Z,7.50
2019-04-11T19:42:00.028Z,7.40
2019-04-11T19:44:28.147Z,9.93
2019-04-11T19:46:56.218Z,13.53
2019-04-11T19:49:24.225Z,11.93
2019-04-11T19:51:52.206Z,7.20
2019-04-11T19:54:20.304Z,10.30
2019-04-11T19:57:07.217Z,6.23
2019-04-11T19:59:35.295Z,5.47
2019-04-11T20:02:03.303Z,5.23
2019-04-11T20:04:31.269Z,6.73
2019-04-11T20:06:59.471Z,4.10
2019-04-11T20:09:27.452Z,5.17
2019-04-11T20:11:55.397Z,9.60
2019-04-11T20:14:23.416Z,12.77
2019-04-11T20:16:52.098Z,5.70
2019-04-11T20:19:20.340Z,9.17
2019-04-11T20:21:48.332Z,4.37
2019-04-11T20:24:16.328Z,4.70
2019-04-11T20:26:44.291Z,9.47
2019-04-11T20:29:12.293Z,8.27
2019-04-11T20:31:40.379Z,7.03
2019-04-11T20:34:08.391Z,6.60
2019-04-11T20:36:36.392Z,4.33
2019-04-11T20:39:05.935Z,5.13
2019-04-11T20:41:33.866Z,6.73
2019-04-11T20:44:01.901Z,4.47
2019-04-11T20:46:29.967Z,5.37
2019-04-11T20:48:58.114Z,5.37
2019-04-11T20:51:29.129Z,3.57
2019-04-11T20:53:57.144Z,9.13
2019-04-11T20:56:25.105Z,6.43
2019-04-11T20:58:53.136Z,5.10
2019-04-11T21:01:21.134Z,2.73
2019-04-11T21:03:49.168Z,2.37
2019-04-11T21:06:20.065Z,2.90
2019-04-11T21:08:48.057Z,2.67
2019-04-11T21:11:16.027Z,3.30
2019-04-11T21:13:44.056Z,4.17
2019-04-11T21:16:12.068Z,3.47
2019-04-11T21:18:39.992Z,3.93
2019-04-11T21:21:07.996Z,4.40
2019-04-11T21:23:35.987Z,8.70
2019-04-11T21:26:03.934Z,3.13
2019-04-11T21:28:32.155Z,3.23
2019-04-11T21:31:02.839Z,3.20
2019-04-11T21:33:34.927Z,7.47
2019-04-11T21:36:02.062Z,6.53
2019-04-11T21:38:30.870Z,4.63
2019-04-11T21:40:59.489Z,8.17
2019-04-11T21:43:27.444Z,4.07
2019-04-11T21:45:55.495Z,4.20
2019-04-11T21:48:23.764Z,2.63
2019-04-11T21:50:51.670Z,3.43
2019-04-11T21:53:19.638Z,4.40
2019-04-11T21:55:48.420Z,4.60
2019-04-11T21:58:19.250Z,4.73
2019-04-11T22:00:48.055Z,3.10
2019-04-11T22:03:23.961Z,2.43
2019-04-11T22:05:49.684Z,6.03
2019-04-11T22:08:20.475Z,3.10
2019-04-11T22:10:48.402Z,3.33
2019-04-11T22:13:17.641Z,3.57
2019-04-11T22:15:45.772Z,2.93
2019-04-11T22:18:16.727Z,3.20
2019-04-11T22:20:45.308Z,3.10
2019-04-11T22:23:12.944Z,4.43
2019-04-11T22:25:43.492Z,8.27
2019-04-11T22:28:11.497Z,2.87
2019-04-11T22:30:39.445Z,6.50
2019-04-11T22:33:27.630Z,5.30
2019-04-11T22:35:56.972Z,7.47
2019-04-11T22:38:26.003Z,4.47
2019-04-11T22:40:53.981Z,6.93
2019-04-11T22:43:24.669Z,4.37
2019-04-11T22:45:51.652Z,5.83
2019-04-11T22:48:19.595Z,5.33
2019-04-11T22:50:47.595Z,5.50
2019-04-11T22:53:15.541Z,4.03
2019-04-11T22:55:45.683Z,2.73
2019-04-11T22:58:14.649Z,3.20
2019-04-11T23:00:44.914Z,3.73
2019-04-11T23:03:22.115Z,3.90
2019-04-11T23:05:50.175Z,3.23
2019-04-11T23:08:19.251Z,2.83
2019-04-11T23:10:47.865Z,3.27
2019-04-11T23:13:16.406Z,2.70
2019-04-11T23:15:44.510Z,2.80
2019-04-11T23:18:14.030Z,2.70
2019-04-11T23:20:44.096Z,2.97
2019-04-11T23:23:13.401Z,2.60
2019-04-11T23:25:41.417Z,2.40
2019-04-11T23:28:09.335Z,2.87
2019-04-11T23:30:37.264Z,2.10
2019-04-11T23:33:05.193Z,2.40
2019-04-11T23:35:34.075Z,2.97
2019-04-11T23:38:02.022Z,2.43
2019-04-11T23:40:30.022Z,3.40
2019-04-11T23:42:58.027Z,3.33
2019-04-11T23:45:27.284Z,2.30
2019-04-11T23:47:55.304Z,2.50
2019-04-11T23:50:25.201Z,3.80
2019-04-11T23:52:57.003Z,2.57
2019-04-11T23:55:22.557Z,3.07
2019-04-11T23:57:50.726Z,2.83
